createdAt,value
2023-02-27T00:00:57.057Z,7.35
2023-02-27T00:03:24.442Z,6.57
2023-02-27T00:05:51.382Z,7.25
2023-02-27T00:08:18.682Z,7.22
2023-02-27T00:10:45.730Z,6.88
2023-02-27T00:13:12.770Z,7.50
2023-02-27T00:15:41.235Z,7.20
2023-02-27T00:18:18.017Z,6.85
2023-02-27T00:20:48.950Z,7.85
2023-02-27T00:23:16.088Z,7.47
2023-02-27T00:25:43.165Z,7.95
2023-02-27T00:28:10.079Z,7.72
2023-02-27T00:30:37.041Z,7.15
2023-02-27T00:33:05.071Z,7.50
2023-02-27T00:35:33.569Z,8.05
2023-02-27T00:38:00.642Z,7.38
2023-02-27T00:40:27.571Z,7.55
2023-02-27T00:42:54.560Z,7.43
2023-02-27T00:45:21.522Z,7.88
2023-02-27T00:47:49.630Z,7.85
2023-02-27T00:50:16.800Z,8.98
2023-02-27T00:52:44.003Z,9.27
2023-02-27T00:55:11.067Z,8.45
2023-02-27T00:57:39.431Z,9.23
2023-02-27T01:00:10.772Z,8.52
2023-02-27T01:02:38.012Z,8.50
2023-02-27T01:05:05.366Z,9.57
2023-02-27T01:07:32.865Z,10.02
2023-02-27T01:10:02.127Z,9.63
2023-02-27T01:12:29.204Z,11.07
2023-02-27T01:14:56.188Z,8.90
2023-02-27T01:17:23.178Z,9.35
2023-02-27T01:19:50.077Z,10.02
2023-02-27T01:22:16.992Z,9.52
2023-02-27T01:24:43.832Z,12.20
2023-02-27T01:27:10.810Z,8.95
2023-02-27T01:29:37.792Z,10.82
2023-02-27T01:32:04.853Z,9.55
2023-02-27T01:34:34.116Z,8.25
2023-02-27T01:39:29.499Z,9.25
2023-02-27T01:41:56.447Z,9.30
2023-02-27T01:44:27.186Z,9.38
2023-02-27T01:46:54.011Z,9.57
2023-02-27T01:49:28.429Z,8.45
2023-02-27T01:52:07.676Z,10.40
2023-02-27T01:54:40.741Z,8.20
2023-02-27T01:57:09.872Z,8.15
2023-02-27T01:59:40.327Z,8.35
2023-02-27T02:02:17.491Z,9.27
2023-02-27T02:04:44.537Z,10.20
2023-02-27T02:07:15.501Z,8.13
2023-02-27T02:09:47.234Z,8.60
2023-02-27T02:12:16.333Z,10.82
2023-02-27T02:14:43.967Z,8.95
2023-02-27T02:17:44.152Z,7.72
2023-02-27T02:20:41.641Z,8.65
2023-02-27T02:23:26.875Z,8.65
2023-02-27T02:26:24.984Z,7.85
2023-02-27T02:29:25.485Z,8.77
2023-02-27T02:34:43.281Z,8.75
2023-02-27T02:37:44.930Z,8.55
2023-02-27T02:40:16.958Z,7.80
2023-02-27T02:43:06.319Z,8.48
2023-02-27T02:46:14.964Z,8.05
2023-02-27T02:48:54.642Z,8.43
2023-02-27T02:51:55.731Z,10.73
2023-02-27T02:54:34.084Z,8.65
2023-02-27T02:57:16.338Z,8.40
2023-02-27T02:59:46.484Z,8.30
2023-02-27T03:02:18.808Z,9.68
2023-02-27T03:05:02.326Z,9.07
2023-02-27T03:07:40.304Z,9.23
2023-02-27T03:10:48.488Z,9.07
2023-02-27T03:13:27.763Z,8.68
2023-02-27T03:16:06.488Z,8.30
2023-02-27T03:18:54.136Z,9.60
2023-02-27T03:21:34.492Z,8.70
2023-02-27T03:24:06.607Z,9.80
2023-02-27T03:26:41.468Z,8.90
2023-02-27T03:29:12.355Z,8.90
2023-02-27T03:31:47.915Z,9.23
2023-02-27T03:34:19.790Z,9.68
2023-02-27T03:36:49.742Z,8.77
2023-02-27T03:39:45.629Z,8.98
2023-02-27T03:42:15.989Z,9.93
2023-02-27T03:45:30.022Z,9.10
2023-02-27T03:47:57.331Z,9.88
2023-02-27T03:50:25.037Z,8.57
2023-02-27T03:52:52.414Z,10.07
2023-02-27T03:55:30.509Z,9.73
2023-02-27T03:57:57.702Z,8.98
2023-02-27T04:00:26.210Z,9.15
2023-02-27T04:02:56.182Z,8.60
2023-02-27T04:05:28.966Z,8.75
2023-02-27T04:08:15.751Z,9.23
2023-02-27T04:11:07.058Z,9.18
2023-02-27T04:13:44.361Z,9.15
2023-02-27T04:16:38.514Z,9.48
2023-02-27T04:19:32.961Z,9.70
2023-02-27T04:22:11.082Z,9.30
2023-02-27T04:25:15.948Z,9.48
2023-02-27T04:28:19.382Z,8.95
2023-02-27T04:30:49.012Z,11.30
2023-02-27T04:33:18.892Z,9.98
2023-02-27T04:36:17.979Z,9.68
2023-02-27T04:38:51.933Z,9.25
2023-02-27T04:41:28.360Z,12.70
2023-02-27T04:43:56.886Z,8.77
2023-02-27T04:46:28.135Z,9.18
2023-02-27T04:49:04.381Z,8.57
2023-02-27T04:51:42.753Z,8.38
2023-02-27T04:54:17.903Z,9.40
2023-02-27T04:56:49.707Z,9.10
2023-02-27T04:59:26.136Z,9.13
2023-02-27T05:02:04.671Z,8.80
2023-02-27T05:04:35.737Z,9.80
2023-02-27T05:07:05.869Z,11.13
2023-02-27T05:10:25.116Z,8.65
2023-02-27T05:12:58.414Z,8.82
2023-02-27T05:15:35.813Z,10.60
2023-02-27T05:18:17.141Z,10.52
2023-02-27T05:21:41.665Z,11.32
2023-02-27T05:24:21.428Z,8.63
2023-02-27T05:27:02.963Z,8.77
2023-02-27T05:29:41.747Z,11.52
2023-02-27T05:32:15.072Z,13.50
2023-02-27T05:34:52.462Z,8.30
2023-02-27T05:37:48.188Z,9.00
2023-02-27T05:40:31.374Z,8.95
2023-02-27T05:43:06.624Z,9.48
2023-02-27T05:45:37.032Z,9.90
2023-02-27T05:50:39.270Z,10.20
2023-02-27T05:53:14.267Z,9.07
2023-02-27T05:55:56.776Z,9.88
2023-02-27T05:59:23.097Z,14.65
2023-02-27T06:01:50.052Z,9.98
2023-02-27T06:04:16.913Z,10.82
2023-02-27T06:06:45.229Z,10.65
2023-02-27T06:09:12.070Z,10.90
2023-02-27T06:11:38.866Z,11.13
2023-02-27T06:14:05.837Z,12.48
2023-02-27T06:16:32.955Z,10.13
2023-02-27T06:18:59.982Z,10.70
2023-02-27T06:21:26.938Z,13.68
2023-02-27T06:23:53.811Z,10.70
2023-02-27T06:26:20.696Z,10.98
2023-02-27T06:28:47.735Z,12.15
2023-02-27T06:31:14.613Z,10.18
2023-02-27T06:33:41.507Z,11.23
2023-02-27T06:36:08.429Z,13.10
2023-02-27T06:38:35.255Z,12.40
2023-02-27T06:41:03.953Z,11.15
2023-02-27T06:43:34.796Z,10.60
2023-02-27T06:46:01.816Z,10.95
2023-02-27T06:48:28.961Z,13.02
2023-02-27T06:50:56.841Z,13.27
2023-02-27T06:53:24.906Z,11.65
2023-02-27T06:55:52.874Z,12.73
2023-02-27T06:58:19.747Z,15.43
2023-02-27T07:00:46.660Z,11.75
2023-02-27T07:03:13.469Z,15.57
2023-02-27T07:05:41.884Z,10.65
2023-02-27T07:08:09.851Z,10.65
2023-02-27T07:10:36.811Z,13.70
2023-02-27T07:13:03.650Z,13.15
2023-02-27T07:15:30.627Z,11.13
2023-02-27T07:17:57.477Z,14.40
2023-02-27T07:20:24.370Z,12.68
2023-02-27T07:22:51.212Z,14.18
2023-02-27T07:25:18.153Z,13.05
2023-02-27T07:27:46.456Z,12.90
2023-02-27T07:30:13.785Z,11.52
2023-02-27T07:32:40.692Z,15.18
2023-02-27T07:35:08.669Z,12.20
2023-02-27T07:37:38.793Z,11.43
2023-02-27T07:40:09.191Z,12.73
2023-02-27T07:42:36.115Z,11.50
2023-02-27T07:45:03.066Z,12.10
2023-02-27T07:47:30.644Z,10.85
2023-02-27T07:49:57.578Z,15.15
2023-02-27T07:52:25.477Z,11.50
2023-02-27T07:54:52.560Z,12.30
2023-02-27T07:57:19.507Z,10.57
2023-02-27T07:59:49.323Z,13.00
2023-02-27T08:02:16.226Z,13.13
2023-02-27T08:04:43.239Z,13.07
2023-02-27T08:07:10.235Z,19.25
2023-02-27T08:09:37.080Z,12.90
2023-02-27T08:12:04.729Z,12.75
2023-02-27T08:14:31.727Z,12.95
2023-02-27T08:17:00.396Z,13.73
2023-02-27T08:19:27.526Z,11.80
2023-02-27T08:21:54.467Z,12.00
2023-02-27T08:24:21.928Z,15.20
2023-02-27T08:26:48.904Z,12.88
2023-02-27T08:29:17.048Z,11.73
2023-02-27T08:31:44.379Z,12.48
2023-02-27T08:34:14.002Z,12.90
2023-02-27T08:36:41.198Z,12.85
2023-02-27T08:39:08.996Z,12.20
2023-02-27T08:41:36.152Z,14.02
2023-02-27T08:44:03.173Z,12.75
2023-02-27T08:46:30.374Z,13.05
2023-02-27T08:48:57.401Z,15.88
2023-02-27T08:51:24.278Z,14.00
2023-02-27T08:53:51.157Z,16.77
2023-02-27T08:56:18.020Z,15.20
2023-02-27T08:58:44.779Z,13.27
2023-02-27T09:01:11.736Z,12.60
2023-02-27T09:03:38.571Z,17.70
2023-02-27T09:06:05.595Z,15.68
2023-02-27T09:08:32.684Z,12.00
2023-02-27T09:10:59.624Z,16.40
2023-02-27T09:13:26.995Z,19.52
2023-02-27T09:15:54.354Z,13.30
2023-02-27T09:18:22.109Z,15.63
2023-02-27T09:20:51.303Z,14.25
2023-02-27T09:23:18.643Z,13.52
2023-02-27T09:25:47.481Z,21.50
2023-02-27T09:28:14.398Z,19.77
2023-02-27T09:30:42.198Z,15.85
2023-02-27T09:33:09.266Z,14.57
2023-02-27T09:35:36.182Z,14.40
2023-02-27T09:38:03.602Z,13.73
2023-02-27T09:40:39.782Z,16.10
2023-02-27T09:43:17.177Z,14.85
2023-02-27T09:45:47.035Z,14.27
2023-02-27T09:48:47.249Z,17.33
2023-02-27T09:51:19.340Z,14.95
2023-02-27T09:53:49.400Z,16.38
2023-02-27T09:56:47.650Z,14.57
2023-02-27T09:59:42.636Z,13.90
2023-02-27T10:02:34.911Z,14.68
2023-02-27T10:05:31.381Z,14.07
2023-02-27T10:08:06.945Z,19.48
2023-02-27T10:10:44.761Z,14.90
2023-02-27T10:13:32.555Z,15.38
2023-02-27T10:16:00.422Z,14.95
2023-02-27T10:18:31.997Z,15.75
2023-02-27T10:21:03.107Z,14.45
2023-02-27T10:23:51.318Z,15.68
2023-02-27T10:26:30.172Z,17.50
2023-02-27T10:29:00.165Z,12.00
2023-02-27T10:31:31.958Z,15.10
2023-02-27T10:34:00.880Z,14.80
2023-02-27T10:36:34.449Z,14.70
2023-02-27T10:39:07.219Z,14.15
2023-02-27T10:41:36.380Z,13.70
2023-02-27T10:44:03.672Z,16.00
2023-02-27T10:46:34.764Z,15.88
2023-02-27T10:49:05.763Z,16.60
2023-02-27T10:51:38.460Z,14.38
2023-02-27T10:54:21.294Z,16.50
2023-02-27T10:56:52.342Z,21.20
2023-02-27T10:59:26.506Z,18.02
2023-02-27T11:01:57.625Z,21.35
2023-02-27T11:04:40.601Z,15.00
2023-02-27T11:07:16.069Z,18.45
2023-02-27T11:09:43.424Z,15.45
2023-02-27T11:12:24.567Z,15.07
2023-02-27T11:14:56.967Z,17.00
2023-02-27T11:17:32.433Z,15.32
2023-02-27T11:20:01.415Z,15.07
2023-02-27T11:22:31.114Z,16.08
2023-02-27T11:25:30.452Z,17.63
2023-02-27T11:28:21.427Z,14.32
2023-02-27T11:31:07.338Z,13.65
2023-02-27T11:33:38.439Z,18.60
2023-02-27T11:36:06.255Z,17.00
2023-02-27T11:38:34.900Z,16.88
2023-02-27T11:41:07.557Z,14.35
2023-02-27T11:43:42.927Z,13.65
2023-02-27T11:46:46.400Z,14.50
2023-02-27T11:49:33.837Z,17.45
2023-02-27T11:52:09.586Z,15.05
2023-02-27T11:54:45.617Z,14.15
2023-02-27T11:57:35.687Z,14.80
2023-02-27T12:00:08.569Z,17.40
2023-02-27T12:02:47.810Z,15.00
2023-02-27T12:05:36.565Z,15.73
2023-02-27T12:08:19.643Z,19.92
2023-02-27T12:11:12.881Z,12.98
2023-02-27T12:13:43.170Z,16.77
2023-02-27T12:16:38.556Z,15.70
2023-02-27T12:19:20.510Z,17.48
2023-02-27T12:22:19.020Z,16.13
2023-02-27T12:25:28.915Z,14.50
2023-02-27T12:28:31.619Z,12.90
2023-02-27T12:31:13.623Z,15.40
2023-02-27T12:33:57.662Z,20.73
2023-02-27T12:36:25.124Z,18.80
2023-02-27T12:38:52.325Z,18.42
2023-02-27T12:41:41.836Z,13.93
2023-02-27T12:44:33.431Z,17.30
2023-02-27T12:47:18.235Z,17.75
2023-02-27T12:49:53.736Z,18.80
2023-02-27T12:52:32.467Z,19.75
2023-02-27T12:55:14.877Z,17.13
2023-02-27T12:57:44.775Z,18.25
2023-02-27T13:00:20.523Z,22.15
2023-02-27T13:02:57.262Z,14.55
2023-02-27T13:05:32.707Z,15.05
2023-02-27T13:08:23.926Z,17.83
2023-02-27T13:11:04.898Z,17.88
2023-02-27T13:14:00.853Z,15.88
2023-02-27T13:16:37.316Z,17.63
2023-02-27T13:19:15.817Z,13.63
2023-02-27T13:21:55.045Z,15.15
2023-02-27T13:24:23.975Z,14.25
2023-02-27T13:27:03.494Z,17.92
2023-02-27T13:29:49.487Z,15.37
2023-02-27T13:32:16.416Z,16.15
2023-02-27T13:35:02.910Z,14.98
2023-02-27T13:37:56.688Z,15.23
2023-02-27T13:40:28.055Z,16.10
2023-02-27T13:42:58.982Z,17.40
2023-02-27T13:45:58.181Z,17.25
2023-02-27T13:48:33.999Z,15.50
2023-02-27T13:51:01.573Z,18.30
2023-02-27T13:53:30.073Z,16.77
2023-02-27T13:56:21.995Z,18.73
2023-02-27T13:58:50.260Z,16.42
2023-02-27T14:01:22.675Z,18.08
2023-02-27T14:03:56.759Z,18.38
2023-02-27T14:06:26.191Z,17.00
2023-02-27T14:09:08.789Z,18.33
2023-02-27T14:11:51.474Z,23.15
2023-02-27T14:14:50.345Z,18.35
2023-02-27T14:17:38.637Z,18.92
2023-02-27T14:20:18.058Z,19.75
2023-02-27T14:23:06.388Z,19.17
2023-02-27T14:25:34.878Z,20.02
2023-02-27T14:28:03.035Z,15.98
2023-02-27T14:30:43.523Z,21.85
2023-02-27T14:33:10.362Z,17.38
2023-02-27T14:35:38.197Z,19.95
2023-02-27T14:38:10.622Z,21.63
2023-02-27T14:40:48.347Z,19.40
2023-02-27T14:43:45.322Z,19.23
2023-02-27T14:46:36.183Z,21.70
2023-02-27T14:49:25.246Z,20.83
2023-02-27T14:51:53.932Z,18.95
2023-02-27T14:54:26.108Z,20.13
2023-02-27T14:57:01.111Z,19.63
2023-02-27T14:59:31.610Z,19.48
2023-02-27T15:02:02.286Z,18.85
2023-02-27T15:04:31.019Z,18.40
2023-02-27T15:06:59.744Z,16.48
2023-02-27T15:09:43.195Z,20.23
2023-02-27T15:12:17.740Z,16.15
2023-02-27T15:14:51.322Z,20.05
2023-02-27T15:17:24.701Z,20.00
2023-02-27T15:19:59.624Z,23.90
2023-02-27T15:22:39.326Z,19.63
2023-02-27T15:25:27.310Z,17.67
2023-02-27T15:27:57.867Z,18.02
2023-02-27T15:30:24.992Z,21.23
2023-02-27T15:32:54.773Z,19.50
2023-02-27T15:35:30.236Z,18.70
2023-02-27T15:38:01.067Z,17.90
2023-02-27T15:40:33.405Z,19.25
2023-02-27T15:43:01.519Z,18.60
2023-02-27T15:45:35.305Z,21.33
2023-02-27T15:48:03.229Z,21.70
2023-02-27T15:50:41.692Z,25.05
2023-02-27T15:53:08.522Z,26.65
2023-02-27T15:55:39.794Z,31.40
2023-02-27T15:58:27.773Z,32.72
2023-02-27T16:01:13.825Z,33.33
2023-02-27T16:03:48.284Z,30.55
2023-02-27T16:06:26.707Z,33.70
2023-02-27T16:09:00.679Z,36.92
2023-02-27T16:11:31.847Z,38.75
2023-02-27T16:13:59.441Z,37.92
2023-02-27T16:16:37.711Z,37.35
2023-02-27T16:19:28.129Z,38.88
2023-02-27T16:24:32.219Z,41.22
2023-02-27T16:27:00.499Z,41.53
2023-02-27T16:29:36.833Z,43.72
2023-02-27T16:32:04.544Z,43.22
2023-02-27T16:34:47.983Z,43.17
2023-02-27T16:37:24.266Z,47.53
2023-02-27T16:39:55.125Z,47.53
2023-02-27T16:42:22.335Z,51.13
2023-02-27T16:44:49.243Z,44.25
2023-02-27T16:47:16.250Z,46.33
2023-02-27T16:49:44.557Z,39.65
2023-02-27T16:52:12.300Z,43.95
2023-02-27T16:54:39.167Z,41.50
2023-02-27T16:57:06.105Z,44.42
2023-02-27T16:59:39.977Z,46.65
2023-02-27T17:02:16.185Z,48.35
2023-02-27T17:04:44.608Z,52.58
2023-02-27T17:07:16.231Z,49.97
2023-02-27T17:09:45.051Z,50.55
2023-02-27T17:12:12.049Z,51.78
2023-02-27T17:14:39.003Z,54.33
2023-02-27T17:17:07.047Z,52.22
2023-02-27T17:19:35.107Z,50.00
2023-02-27T17:22:02.238Z,53.35
2023-02-27T17:24:29.628Z,50.70
2023-02-27T17:26:56.464Z,53.53
2023-02-27T17:29:24.236Z,55.38
2023-02-27T17:31:51.753Z,49.92
2023-02-27T17:34:18.829Z,52.13
2023-02-27T17:36:45.998Z,57.78
2023-02-27T17:39:16.905Z,55.08
2023-02-27T17:41:44.444Z,56.03
2023-02-27T17:44:12.196Z,64.88
2023-02-27T17:46:40.171Z,65.10
2023-02-27T17:49:07.437Z,68.53
2023-02-27T17:51:34.358Z,65.03
2023-02-27T17:54:04.007Z,73.07
2023-02-27T17:56:31.509Z,59.08
2023-02-27T17:58:58.655Z,69.95
2023-02-27T18:01:26.612Z,55.22
2023-02-27T18:03:54.941Z,60.47
2023-02-27T18:06:22.935Z,65.20
2023-02-27T18:08:50.148Z,44.88
2023-02-27T18:11:20.766Z,54.15
2023-02-27T18:13:48.711Z,55.08
2023-02-27T18:16:15.672Z,53.65
2023-02-27T18:18:43.569Z,60.22
2023-02-27T18:21:14.400Z,55.13
2023-02-27T18:23:42.306Z,51.10
2023-02-27T18:26:27.142Z,59.38
2023-02-27T18:28:56.874Z,50.95
2023-02-27T18:31:27.974Z,51.45
2023-02-27T18:33:55.962Z,52.25
2023-02-27T18:36:23.114Z,48.50
2023-02-27T18:38:50.124Z,50.17
2023-02-27T18:41:17.294Z,49.03
2023-02-27T18:43:44.680Z,45.33
2023-02-27T18:46:12.975Z,42.20
2023-02-27T18:48:40.986Z,37.10
2023-02-27T18:51:12.412Z,36.10
2023-02-27T18:53:41.229Z,40.45
2023-02-27T18:56:09.335Z,39.63
2023-02-27T18:58:37.093Z,42.30
2023-02-27T19:01:05.260Z,37.28
2023-02-27T19:03:32.418Z,38.40
2023-02-27T19:05:59.501Z,40.92
2023-02-27T19:08:29.335Z,43.25
2023-02-27T19:10:58.178Z,43.47
2023-02-27T19:13:26.105Z,38.25
2023-02-27T19:15:53.664Z,42.30
2023-02-27T19:18:20.597Z,41.55
2023-02-27T19:20:47.824Z,39.40
2023-02-27T19:23:14.664Z,36.65
2023-02-27T19:25:46.797Z,36.10
2023-02-27T19:28:13.881Z,35.67
2023-02-27T19:30:40.966Z,39.13
2023-02-27T19:33:08.044Z,36.45
2023-02-27T19:35:35.089Z,34.35
2023-02-27T19:38:02.071Z,34.90
2023-02-27T19:40:29.019Z,38.75
2023-02-27T19:42:56.046Z,35.33
2023-02-27T19:45:23.582Z,38.08
2023-02-27T19:47:50.610Z,36.97
2023-02-27T19:50:18.002Z,36.97
2023-02-27T19:52:44.884Z,43.85
2023-02-27T19:55:12.183Z,35.90
2023-02-27T19:57:39.120Z,34.40
2023-02-27T20:00:08.578Z,38.03
2023-02-27T20:02:42.489Z,40.42
2023-02-27T20:05:12.224Z,36.20
2023-02-27T20:07:40.499Z,34.78
2023-02-27T20:10:07.608Z,34.85
2023-02-27T20:39:32.736Z,31.80
2023-02-27T20:41:59.749Z,33.33
2023-02-27T20:44:26.571Z,29.70
2023-02-27T20:46:53.590Z,33.65
2023-02-27T20:49:22.134Z,32.33
2023-02-27T20:51:49.129Z,33.03
2023-02-27T20:54:20.732Z,31.73
2023-02-27T20:56:51.997Z,36.45
2023-02-27T20:59:21.030Z,34.05
2023-02-27T21:01:51.797Z,30.60
2023-02-27T21:04:24.246Z,35.33
2023-02-27T21:06:51.848Z,31.42
2023-02-27T21:09:19.082Z,37.40
2023-02-27T21:11:46.092Z,33.95
2023-02-27T21:14:12.950Z,33.53
2023-02-27T21:16:40.728Z,33.53
2023-02-27T21:19:08.368Z,32.40
2023-02-27T21:21:36.491Z,30.92
2023-02-27T21:24:03.642Z,34.28
2023-02-27T21:26:35.461Z,32.33
2023-02-27T21:29:06.435Z,33.28
2023-02-27T21:31:35.593Z,29.90
2023-02-27T21:34:05.766Z,34.00
2023-02-27T21:36:38.407Z,29.40
2023-02-27T21:39:07.346Z,29.02
2023-02-27T21:41:38.107Z,28.05
2023-02-27T21:44:06.969Z,30.77
2023-02-27T21:46:34.503Z,33.20
2023-02-27T21:49:01.961Z,29.15
2023-02-27T21:51:40.063Z,27.10
2023-02-27T21:54:10.617Z,26.40
2023-02-27T21:56:38.743Z,28.10
2023-02-27T21:59:06.339Z,28.85
2023-02-27T22:01:34.036Z,26.92
2023-02-27T22:04:02.170Z,24.10
2023-02-27T22:06:34.027Z,25.83
2023-02-27T22:09:05.009Z,25.27
2023-02-27T22:11:34.306Z,29.55
2023-02-27T22:14:01.247Z,25.23
2023-02-27T22:16:28.190Z,26.83
2023-02-27T22:18:55.162Z,25.42
2023-02-27T22:21:25.375Z,26.42
2023-02-27T22:26:21.842Z,30.35
2023-02-27T22:28:48.787Z,22.65
2023-02-27T22:31:25.310Z,25.30
2023-02-27T22:33:55.681Z,30.83
2023-02-27T22:36:29.328Z,30.08
2023-02-27T22:38:57.006Z,26.63
2023-02-27T22:41:30.920Z,23.42
2023-02-27T22:44:00.118Z,26.27
2023-02-27T22:46:29.922Z,24.48
2023-02-27T22:49:18.251Z,23.38
2023-02-27T22:51:47.291Z,22.25
2023-02-27T22:54:16.458Z,28.55
2023-02-27T22:56:43.885Z,22.02
2023-02-27T22:59:11.030Z,23.95
2023-02-27T23:01:38.477Z,22.42
2023-02-27T23:04:11.500Z,24.23
2023-02-27T23:06:40.716Z,22.75
2023-02-27T23:09:10.951Z,22.85
2023-02-27T23:11:37.893Z,25.67
2023-02-27T23:14:04.727Z,21.10
2023-02-27T23:16:31.652Z,23.15
2023-02-27T23:18:59.888Z,21.38
2023-02-27T23:21:35.640Z,20.08
2023-02-27T23:24:07.306Z,23.65
2023-02-27T23:26:39.378Z,20.95
2023-02-27T23:29:07.098Z,21.35
2023-02-27T23:31:36.136Z,22.63
2023-02-27T23:34:06.019Z,22.70
2023-02-27T23:36:34.374Z,25.70
2023-02-27T23:39:03.085Z,22.75
2023-02-27T23:41:30.616Z,23.30
2023-02-27T23:44:16.235Z,26.50
2023-02-27T23:46:43.417Z,21.70
2023-02-27T23:49:11.290Z,21.45
2023-02-27T23:51:38.352Z,19.38
2023-02-27T23:54:05.271Z,22.27
2023-02-27T23:56:32.237Z,25.02
2023-02-27T23:59:02.076Z,23.40
